sensor_id;sensor_type;location;lat;lon;timestamp;P1;durP1;ratioP1;P2;durP2;ratioP2
13083;SDS011;6608;48.790;9.198;2022-10-16T00:01:54;169.10;;;63.27;;
13083;SDS011;6608;48.790;9.198;2022-10-16T00:04:20;163.13;;;63.03;;
13083;SDS011;6608;48.790;9.198;2022-10-16T00:06:47;162.77;;;62.60;;
13083;SDS011;6608;48.790;9.198;2022-10-16T00:09:14;163.13;;;63.30;;
13083;SDS011;6608;48.790;9.198;2022-10-16T00:11:41;163.87;;;63.03;;
13083;SDS011;6608;48.790;9.198;2022-10-16T00:14:09;161.57;;;62.90;;
13083;SDS011;6608;48.790;9.198;2022-10-16T00:16:36;161.83;;;63.40;;
13083;SDS011;6608;48.790;9.198;2022-10-16T00:19:02;163.77;;;62.80;;
13083;SDS011;6608;48.790;9.198;2022-10-16T00:21:30;162.43;;;62.87;;
13083;SDS011;6608;48.790;9.198;2022-10-16T00:23:57;160.57;;;62.73;;
13083;SDS011;6608;48.790;9.198;2022-10-16T00:26:26;168.80;;;63.40;;
13083;SDS011;6608;48.790;9.198;2022-10-16T00:28:53;163.13;;;63.90;;
13083;SDS011;6608;48.790;9.198;2022-10-16T00:31:20;160.77;;;62.67;;
13083;SDS011;6608;48.790;9.198;2022-10-16T00:33:47;161.40;;;63.30;;
13083;SDS011;6608;48.790;9.198;2022-10-16T00:36:14;161.10;;;62.10;;
13083;SDS011;6608;48.790;9.198;2022-10-16T00:38:41;164.30;;;63.40;;
13083;SDS011;6608;48.790;9.198;2022-10-16T00:41:10;162.43;;;63.27;;
13083;SDS011;6608;48.790;9.198;2022-10-16T00:43:39;160.77;;;63.00;;
13083;SDS011;6608;48.790;9.198;2022-10-16T00:46:09;164.60;;;62.57;;
13083;SDS011;6608;48.790;9.198;2022-10-16T00:48:37;160.60;;;62.40;;
13083;SDS011;6608;48.790;9.198;2022-10-16T00:51:03;159.97;;;62.07;;
13083;SDS011;6608;48.790;9.198;2022-10-16T00:53:30;162.17;;;62.70;;
13083;SDS011;6608;48.790;9.198;2022-10-16T00:55:57;160.47;;;62.33;;
13083;SDS011;6608;48.790;9.198;2022-10-16T00:58:23;159.93;;;62.17;;
13083;SDS011;6608;48.790;9.198;2022-10-16T01:00:51;161.80;;;61.83;;
13083;SDS011;6608;48.790;9.198;2022-10-16T01:03:25;161.80;;;62.17;;
13083;SDS011;6608;48.790;9.198;2022-10-16T01:05:54;159.93;;;61.93;;
13083;SDS011;6608;48.790;9.198;2022-10-16T01:08:22;158.70;;;61.57;;
13083;SDS011;6608;48.790;9.198;2022-10-16T01:10:54;160.93;;;62.53;;
13083;SDS011;6608;48.790;9.198;2022-10-16T01:13:24;161.03;;;63.37;;
13083;SDS011;6608;48.790;9.198;2022-10-16T01:15:53;164.17;;;62.07;;
13083;SDS011;6608;48.790;9.198;2022-10-16T01:18:21;161.17;;;62.30;;
13083;SDS011;6608;48.790;9.198;2022-10-16T01:20:50;162.93;;;62.43;;
13083;SDS011;6608;48.790;9.198;2022-10-16T01:23:21;159.67;;;62.03;;
13083;SDS011;6608;48.790;9.198;2022-10-16T01:25:59;159.03;;;61.67;;
13083;SDS011;6608;48.790;9.198;2022-10-16T01:28:34;163.17;;;62.30;;
13083;SDS011;6608;48.790;9.198;2022-10-16T01:31:02;163.47;;;62.60;;
13083;SDS011;6608;48.790;9.198;2022-10-16T01:33:30;160.20;;;62.03;;
13083;SDS011;6608;48.790;9.198;2022-10-16T01:35:58;158.73;;;61.80;;
13083;SDS011;6608;48.790;9.198;2022-10-16T01:38:28;159.63;;;62.17;;
13083;SDS011;6608;48.790;9.198;2022-10-16T01:40:57;162.13;;;62.23;;
13083;SDS011;6608;48.790;9.198;2022-10-16T01:43:25;160.93;;;62.73;;
13083;SDS011;6608;48.790;9.198;2022-10-16T01:45:54;160.13;;;62.40;;
13083;SDS011;6608;48.790;9.198;2022-10-16T01:48:21;161.70;;;63.13;;
13083;SDS011;6608;48.790;9.198;2022-10-16T01:50:50;162.23;;;62.83;;
13083;SDS011;6608;48.790;9.198;2022-10-16T01:53:18;159.13;;;61.60;;
13083;SDS011;6608;48.790;9.198;2022-10-16T01:55:45;164.40;;;62.57;;
13083;SDS011;6608;48.790;9.198;2022-10-16T01:58:13;163.53;;;61.83;;
13083;SDS011;6608;48.790;9.198;2022-10-16T02:00:41;159.90;;;61.93;;
13083;SDS011;6608;48.790;9.198;2022-10-16T02:03:10;159.03;;;61.60;;
13083;SDS011;6608;48.790;9.198;2022-10-16T02:05:37;159.93;;;62.33;;
13083;SDS011;6608;48.790;9.198;2022-10-16T02:08:05;160.07;;;62.00;;
13083;SDS011;6608;48.790;9.198;2022-10-16T02:10:31;160.03;;;62.07;;
13083;SDS011;6608;48.790;9.198;2022-10-16T02:12:59;161.27;;;62.30;;
13083;SDS011;6608;48.790;9.198;2022-10-16T02:15:26;160.77;;;62.00;;
13083;SDS011;6608;48.790;9.198;2022-10-16T02:17:53;160.53;;;62.17;;
13083;SDS011;6608;48.790;9.198;2022-10-16T02:20:22;162.67;;;62.17;;
13083;SDS011;6608;48.790;9.198;2022-10-16T02:22:50;162.87;;;61.83;;
13083;SDS011;6608;48.790;9.198;2022-10-16T02:25:19;164.30;;;62.40;;
13083;SDS011;6608;48.790;9.198;2022-10-16T02:27:50;161.67;;;62.30;;
13083;SDS011;6608;48.790;9.198;2022-10-16T02:30:19;161.03;;;62.17;;
13083;SDS011;6608;48.790;9.198;2022-10-16T02:32:46;166.87;;;62.57;;
13083;SDS011;6608;48.790;9.198;2022-10-16T02:35:14;161.17;;;61.97;;
13083;SDS011;6608;48.790;9.198;2022-10-16T02:37:43;161.90;;;62.10;;
13083;SDS011;6608;48.790;9.198;2022-10-16T02:40:10;162.57;;;62.00;;
13083;SDS011;6608;48.790;9.198;2022-10-16T02:42:37;164.77;;;62.10;;
13083;SDS011;6608;48.790;9.198;2022-10-16T02:45:04;163.03;;;61.80;;
13083;SDS011;6608;48.790;9.198;2022-10-16T02:47:31;162.10;;;61.83;;
13083;SDS011;6608;48.790;9.198;2022-10-16T02:49:57;160.47;;;62.27;;
13083;SDS011;6608;48.790;9.198;2022-10-16T02:52:24;160.30;;;61.50;;
13083;SDS011;6608;48.790;9.198;2022-10-16T02:54:52;161.70;;;61.60;;
13083;SDS011;6608;48.790;9.198;2022-10-16T02:57:18;164.03;;;64.00;;
13083;SDS011;6608;48.790;9.198;2022-10-16T02:59:45;160.13;;;63.03;;
13083;SDS011;6608;48.790;9.198;2022-10-16T03:02:11;161.93;;;61.97;;
13083;SDS011;6608;48.790;9.198;2022-10-16T03:04:37;163.33;;;63.00;;
13083;SDS011;6608;48.790;9.198;2022-10-16T03:07:04;158.30;;;61.33;;
13083;SDS011;6608;48.790;9.198;2022-10-16T03:09:30;158.53;;;61.17;;
13083;SDS011;6608;48.790;9.198;2022-10-16T03:11:58;158.03;;;61.37;;
13083;SDS011;6608;48.790;9.198;2022-10-16T03:14:25;158.53;;;61.20;;
13083;SDS011;6608;48.790;9.198;2022-10-16T03:16:51;159.83;;;61.90;;
13083;SDS011;6608;48.790;9.198;2022-10-16T03:19:17;158.03;;;61.47;;
13083;SDS011;6608;48.790;9.198;2022-10-16T03:21:44;159.73;;;62.03;;
13083;SDS011;6608;48.790;9.198;2022-10-16T03:24:10;156.57;;;60.97;;
13083;SDS011;6608;48.790;9.198;2022-10-16T03:26:37;157.37;;;61.27;;
13083;SDS011;6608;48.790;9.198;2022-10-16T03:29:05;159.13;;;61.03;;
13083;SDS011;6608;48.790;9.198;2022-10-16T03:31:31;157.27;;;61.13;;
13083;SDS011;6608;48.790;9.198;2022-10-16T03:33:58;156.83;;;60.97;;
13083;SDS011;6608;48.790;9.198;2022-10-16T03:36:24;160.33;;;61.10;;
13083;SDS011;6608;48.790;9.198;2022-10-16T03:38:51;158.53;;;61.63;;
13083;SDS011;6608;48.790;9.198;2022-10-16T03:41:17;157.63;;;61.10;;
13083;SDS011;6608;48.790;9.198;2022-10-16T03:43:43;159.97;;;61.37;;
13083;SDS011;6608;48.790;9.198;2022-10-16T03:46:11;157.70;;;61.60;;
13083;SDS011;6608;48.790;9.198;2022-10-16T03:48:38;157.57;;;61.17;;
13083;SDS011;6608;48.790;9.198;2022-10-16T03:51:04;159.93;;;61.43;;
13083;SDS011;6608;48.790;9.198;2022-10-16T03:53:31;156.03;;;60.50;;
13083;SDS011;6608;48.790;9.198;2022-10-16T03:55:57;159.37;;;61.47;;
13083;SDS011;6608;48.790;9.198;2022-10-16T03:58:24;157.50;;;60.97;;
13083;SDS011;6608;48.790;9.198;2022-10-16T04:00:50;157.37;;;61.10;;
13083;SDS011;6608;48.790;9.198;2022-10-16T04:03:18;158.17;;;60.73;;
13083;SDS011;6608;48.790;9.198;2022-10-16T04:05:46;159.77;;;60.80;;
13083;SDS011;6608;48.790;9.198;2022-10-16T04:08:12;158.53;;;61.93;;
13083;SDS011;6608;48.790;9.198;2022-10-16T04:10:39;158.53;;;61.00;;
13083;SDS011;6608;48.790;9.198;2022-10-16T04:13:05;159.93;;;61.47;;
13083;SDS011;6608;48.790;9.198;2022-10-16T04:15:32;156.57;;;60.83;;
13083;SDS011;6608;48.790;9.198;2022-10-16T04:17:58;161.13;;;61.30;;
13083;SDS011;6608;48.790;9.198;2022-10-16T04:20:26;156.77;;;61.00;;
13083;SDS011;6608;48.790;9.198;2022-10-16T04:22:52;157.90;;;61.20;;
13083;SDS011;6608;48.790;9.198;2022-10-16T04:25:19;155.93;;;60.70;;
13083;SDS011;6608;48.790;9.198;2022-10-16T04:27:45;156.50;;;60.50;;
13083;SDS011;6608;48.790;9.198;2022-10-16T04:30:11;156.73;;;60.90;;
13083;SDS011;6608;48.790;9.198;2022-10-16T04:32:38;163.47;;;61.40;;
13083;SDS011;6608;48.790;9.198;2022-10-16T04:35:05;157.17;;;61.50;;
13083;SDS011;6608;48.790;9.198;2022-10-16T04:37:33;156.73;;;60.40;;
13083;SDS011;6608;48.790;9.198;2022-10-16T04:39:59;156.53;;;61.50;;
13083;SDS011;6608;48.790;9.198;2022-10-16T04:42:26;155.47;;;61.03;;
13083;SDS011;6608;48.790;9.198;2022-10-16T04:44:52;154.63;;;60.63;;
13083;SDS011;6608;48.790;9.198;2022-10-16T04:47:19;159.07;;;60.77;;
13083;SDS011;6608;48.790;9.198;2022-10-16T04:49:45;156.90;;;60.90;;
13083;SDS011;6608;48.790;9.198;2022-10-16T04:52:12;158.80;;;61.73;;
13083;SDS011;6608;48.790;9.198;2022-10-16T04:54:39;155.03;;;60.37;;
13083;SDS011;6608;48.790;9.198;2022-10-16T04:57:06;155.87;;;60.70;;
13083;SDS011;6608;48.790;9.198;2022-10-16T04:59:32;154.80;;;60.87;;
13083;SDS011;6608;48.790;9.198;2022-10-16T05:01:59;161.33;;;60.60;;
13083;SDS011;6608;48.790;9.198;2022-10-16T05:04:25;156.00;;;61.27;;
13083;SDS011;6608;48.790;9.198;2022-10-16T05:06:51;156.27;;;60.93;;
13083;SDS011;6608;48.790;9.198;2022-10-16T05:09:18;154.23;;;60.23;;
13083;SDS011;6608;48.790;9.198;2022-10-16T05:11:46;158.00;;;60.57;;
13083;SDS011;6608;48.790;9.198;2022-10-16T05:14:12;158.77;;;60.60;;
13083;SDS011;6608;48.790;9.198;2022-10-16T05:16:38;157.77;;;60.47;;
13083;SDS011;6608;48.790;9.198;2022-10-16T05:19:05;158.47;;;61.73;;
13083;SDS011;6608;48.790;9.198;2022-10-16T05:21:31;156.13;;;60.60;;
13083;SDS011;6608;48.790;9.198;2022-10-16T05:23:58;159.37;;;60.70;;
13083;SDS011;6608;48.790;9.198;2022-10-16T05:26:24;159.00;;;61.23;;
13083;SDS011;6608;48.790;9.198;2022-10-16T05:28:52;155.47;;;60.43;;
13083;SDS011;6608;48.790;9.198;2022-10-16T05:31:18;156.60;;;60.77;;
13083;SDS011;6608;48.790;9.198;2022-10-16T05:33:45;157.10;;;60.63;;
13083;SDS011;6608;48.790;9.198;2022-10-16T05:36:11;159.57;;;61.43;;
13083;SDS011;6608;48.790;9.198;2022-10-16T05:38:38;155.07;;;60.87;;
13083;SDS011;6608;48.790;9.198;2022-10-16T05:41:05;153.53;;;60.43;;
13083;SDS011;6608;48.790;9.198;2022-10-16T05:43:31;155.20;;;60.70;;
13083;SDS011;6608;48.790;9.198;2022-10-16T05:46:00;154.03;;;60.40;;
13083;SDS011;6608;48.790;9.198;2022-10-16T05:48:26;160.13;;;60.47;;
13083;SDS011;6608;48.790;9.198;2022-10-16T05:50:56;155.60;;;61.13;;
13083;SDS011;6608;48.790;9.198;2022-10-16T05:53:23;154.53;;;60.57;;
13083;SDS011;6608;48.790;9.198;2022-10-16T05:55:53;153.43;;;60.00;;
13083;SDS011;6608;48.790;9.198;2022-10-16T05:58:19;156.13;;;60.70;;
13083;SDS011;6608;48.790;9.198;2022-10-16T06:00:52;154.80;;;60.70;;
13083;SDS011;6608;48.790;9.198;2022-10-16T06:03:21;156.00;;;61.33;;
13083;SDS011;6608;48.790;9.198;2022-10-16T06:05:47;155.73;;;60.70;;
13083;SDS011;6608;48.790;9.198;2022-10-16T06:08:14;157.37;;;61.17;;
13083;SDS011;6608;48.790;9.198;2022-10-16T06:10:40;154.00;;;60.90;;
13083;SDS011;6608;48.790;9.198;2022-10-16T06:13:07;156.77;;;60.33;;
13083;SDS011;6608;48.790;9.198;2022-10-16T06:15:33;155.33;;;61.27;;
13083;SDS011;6608;48.790;9.198;2022-10-16T06:17:59;154.47;;;60.77;;
13083;SDS011;6608;48.790;9.198;2022-10-16T06:20:27;161.00;;;61.33;;
13083;SDS011;6608;48.790;9.198;2022-10-16T06:22:53;158.03;;;60.40;;
13083;SDS011;6608;48.790;9.198;2022-10-16T06:25:20;160.27;;;61.93;;
13083;SDS011;6608;48.790;9.198;2022-10-16T06:27:46;160.47;;;60.67;;
13083;SDS011;6608;48.790;9.198;2022-10-16T06:30:13;156.70;;;60.57;;
13083;SDS011;6608;48.790;9.198;2022-10-16T06:32:39;154.93;;;60.43;;
13083;SDS011;6608;48.790;9.198;2022-10-16T06:35:06;156.57;;;60.73;;
13083;SDS011;6608;48.790;9.198;2022-10-16T06:37:34;156.37;;;60.60;;
13083;SDS011;6608;48.790;9.198;2022-10-16T06:40:00;156.20;;;61.13;;
13083;SDS011;6608;48.790;9.198;2022-10-16T06:42:29;158.77;;;61.30;;
13083;SDS011;6608;48.790;9.198;2022-10-16T06:44:55;157.10;;;61.00;;
13083;SDS011;6608;48.790;9.198;2022-10-16T06:47:22;155.17;;;60.67;;
13083;SDS011;6608;48.790;9.198;2022-10-16T06:49:48;157.43;;;60.93;;
13083;SDS011;6608;48.790;9.198;2022-10-16T06:52:15;160.00;;;63.17;;
13083;SDS011;6608;48.790;9.198;2022-10-16T06:54:42;156.70;;;61.20;;
13083;SDS011;6608;48.790;9.198;2022-10-16T06:57:09;159.40;;;61.67;;
13083;SDS011;6608;48.790;9.198;2022-10-16T06:59:35;156.83;;;61.67;;
13083;SDS011;6608;48.790;9.198;2022-10-16T07:02:02;162.43;;;62.03;;
13083;SDS011;6608;48.790;9.198;2022-10-16T07:04:28;163.30;;;61.93;;
13083;SDS011;6608;48.790;9.198;2022-10-16T07:06:54;165.73;;;64.37;;
13083;SDS011;6608;48.790;9.198;2022-10-16T07:09:21;161.43;;;61.83;;
13083;SDS011;6608;48.790;9.198;2022-10-16T07:11:49;158.43;;;61.30;;
13083;SDS011;6608;48.790;9.198;2022-10-16T07:14:16;158.03;;;61.73;;
13083;SDS011;6608;48.790;9.198;2022-10-16T07:16:43;159.33;;;61.87;;
13083;SDS011;6608;48.790;9.198;2022-10-16T07:19:09;160.13;;;62.07;;
13083;SDS011;6608;48.790;9.198;2022-10-16T07:21:37;161.23;;;62.17;;
13083;SDS011;6608;48.790;9.198;2022-10-16T07:24:04;162.00;;;61.73;;
13083;SDS011;6608;48.790;9.198;2022-10-16T07:26:32;161.10;;;61.70;;
13083;SDS011;6608;48.790;9.198;2022-10-16T07:29:00;162.67;;;62.20;;
13083;SDS011;6608;48.790;9.198;2022-10-16T07:31:27;160.27;;;61.97;;
13083;SDS011;6608;48.790;9.198;2022-10-16T07:33:53;162.40;;;61.63;;
13083;SDS011;6608;48.790;9.198;2022-10-16T07:36:20;161.80;;;62.13;;
13083;SDS011;6608;48.790;9.198;2022-10-16T07:38:46;161.67;;;62.00;;
13083;SDS011;6608;48.790;9.198;2022-10-16T07:41:14;161.07;;;63.63;;
13083;SDS011;6608;48.790;9.198;2022-10-16T07:43:44;157.67;;;61.93;;
13083;SDS011;6608;48.790;9.198;2022-10-16T07:46:12;161.67;;;63.73;;
13083;SDS011;6608;48.790;9.198;2022-10-16T07:48:39;159.13;;;62.47;;
13083;SDS011;6608;48.790;9.198;2022-10-16T07:51:06;162.67;;;62.77;;
13083;SDS011;6608;48.790;9.198;2022-10-16T07:53:32;160.70;;;62.20;;
13083;SDS011;6608;48.790;9.198;2022-10-16T07:55:59;159.03;;;62.07;;
13083;SDS011;6608;48.790;9.198;2022-10-16T07:58:25;165.13;;;62.73;;
13083;SDS011;6608;48.790;9.198;2022-10-16T08:00:52;159.93;;;62.77;;
13083;SDS011;6608;48.790;9.198;2022-10-16T08:03:20;161.33;;;62.73;;
13083;SDS011;6608;48.790;9.198;2022-10-16T08:05:47;160.77;;;63.43;;
13083;SDS011;6608;48.790;9.198;2022-10-16T08:08:13;159.37;;;62.77;;
13083;SDS011;6608;48.790;9.198;2022-10-16T08:10:40;161.33;;;63.33;;
13083;SDS011;6608;48.790;9.198;2022-10-16T08:13:06;163.07;;;63.67;;
13083;SDS011;6608;48.790;9.198;2022-10-16T08:15:33;160.37;;;63.07;;
13083;SDS011;6608;48.790;9.198;2022-10-16T08:18:00;164.23;;;63.60;;
13083;SDS011;6608;48.790;9.198;2022-10-16T08:20:28;161.90;;;64.43;;
13083;SDS011;6608;48.790;9.198;2022-10-16T08:22:55;163.80;;;64.10;;
13083;SDS011;6608;48.790;9.198;2022-10-16T08:25:22;164.13;;;64.73;;
13083;SDS011;6608;48.790;9.198;2022-10-16T08:27:49;166.20;;;64.73;;
13083;SDS011;6608;48.790;9.198;2022-10-16T08:30:15;167.87;;;64.53;;
13083;SDS011;6608;48.790;9.198;2022-10-16T08:32:42;165.70;;;64.87;;
13083;SDS011;6608;48.790;9.198;2022-10-16T08:35:08;171.77;;;64.90;;
13083;SDS011;6608;48.790;9.198;2022-10-16T08:37:36;172.77;;;65.53;;
13083;SDS011;6608;48.790;9.198;2022-10-16T08:40:03;168.27;;;65.53;;
13083;SDS011;6608;48.790;9.198;2022-10-16T08:42:33;166.90;;;65.27;;
13083;SDS011;6608;48.790;9.198;2022-10-16T08:45:09;167.97;;;65.53;;
13083;SDS011;6608;48.790;9.198;2022-10-16T08:47:43;165.33;;;65.20;;
13083;SDS011;6608;48.790;9.198;2022-10-16T08:50:12;169.33;;;65.70;;
13083;SDS011;6608;48.790;9.198;2022-10-16T08:52:40;168.40;;;65.53;;
13083;SDS011;6608;48.790;9.198;2022-10-16T08:55:08;170.90;;;65.70;;
13083;SDS011;6608;48.790;9.198;2022-10-16T08:57:36;167.63;;;65.37;;
13083;SDS011;6608;48.790;9.198;2022-10-16T09:00:05;168.93;;;65.33;;
13083;SDS011;6608;48.790;9.198;2022-10-16T09:02:36;167.23;;;65.90;;
13083;SDS011;6608;48.790;9.198;2022-10-16T09:05:10;164.43;;;64.77;;
13083;SDS011;6608;48.790;9.198;2022-10-16T09:07:43;166.90;;;65.70;;
13083;SDS011;6608;48.790;9.198;2022-10-16T09:10:15;165.30;;;65.33;;
13083;SDS011;6608;48.790;9.198;2022-10-16T09:12:46;171.83;;;66.27;;
13083;SDS011;6608;48.790;9.198;2022-10-16T09:15:19;169.23;;;65.57;;
13083;SDS011;6608;48.790;9.198;2022-10-16T09:17:51;169.83;;;66.47;;
13083;SDS011;6608;48.790;9.198;2022-10-16T09:20:25;167.13;;;65.60;;
13083;SDS011;6608;48.790;9.198;2022-10-16T09:22:54;171.20;;;66.40;;
13083;SDS011;6608;48.790;9.198;2022-10-16T09:25:23;171.57;;;66.23;;
13083;SDS011;6608;48.790;9.198;2022-10-16T09:27:51;168.97;;;66.93;;
13083;SDS011;6608;48.790;9.198;2022-10-16T09:30:19;168.70;;;66.60;;
13083;SDS011;6608;48.790;9.198;2022-10-16T09:32:48;172.27;;;66.37;;
13083;SDS011;6608;48.790;9.198;2022-10-16T09:35:16;171.17;;;67.43;;
13083;SDS011;6608;48.790;9.198;2022-10-16T09:37:44;172.67;;;67.10;;
13083;SDS011;6608;48.790;9.198;2022-10-16T09:40:23;170.30;;;67.87;;
13083;SDS011;6608;48.790;9.198;2022-10-16T09:42:49;171.27;;;66.83;;
13083;SDS011;6608;48.790;9.198;2022-10-16T09:45:21;168.50;;;66.80;;
13083;SDS011;6608;48.790;9.198;2022-10-16T09:47:48;170.83;;;67.03;;
13083;SDS011;6608;48.790;9.198;2022-10-16T09:50:22;171.00;;;67.57;;
13083;SDS011;6608;48.790;9.198;2022-10-16T09:52:49;168.60;;;66.60;;
13083;SDS011;6608;48.790;9.198;2022-10-16T09:55:18;169.13;;;67.57;;
13083;SDS011;6608;48.790;9.198;2022-10-16T09:57:50;173.10;;;68.77;;
13083;SDS011;6608;48.790;9.198;2022-10-16T10:00:17;169.67;;;68.40;;
13083;SDS011;6608;48.790;9.198;2022-10-16T10:02:44;173.47;;;67.43;;
13083;SDS011;6608;48.790;9.198;2022-10-16T10:05:17;170.83;;;68.03;;
13083;SDS011;6608;48.790;9.198;2022-10-16T10:07:46;167.90;;;67.23;;
13083;SDS011;6608;48.790;9.198;2022-10-16T10:10:19;168.43;;;67.67;;
13083;SDS011;6608;48.790;9.198;2022-10-16T10:12:46;169.20;;;67.53;;
13083;SDS011;6608;48.790;9.198;2022-10-16T10:15:12;172.53;;;68.23;;
13083;SDS011;6608;48.790;9.198;2022-10-16T10:17:45;172.23;;;67.57;;
13083;SDS011;6608;48.790;9.198;2022-10-16T10:20:15;168.80;;;68.00;;
13083;SDS011;6608;48.790;9.198;2022-10-16T10:22:42;169.27;;;67.70;;
13083;SDS011;6608;48.790;9.198;2022-10-16T10:25:15;170.23;;;68.37;;
13083;SDS011;6608;48.790;9.198;2022-10-16T10:27:56;170.20;;;68.03;;
13083;SDS011;6608;48.790;9.198;2022-10-16T10:30:26;173.67;;;68.33;;
13083;SDS011;6608;48.790;9.198;2022-10-16T10:33:00;170.33;;;68.10;;
13083;SDS011;6608;48.790;9.198;2022-10-16T10:35:34;171.67;;;68.60;;
13083;SDS011;6608;48.790;9.198;2022-10-16T10:38:06;168.67;;;67.50;;
13083;SDS011;6608;48.790;9.198;2022-10-16T10:40:40;168.00;;;68.07;;
13083;SDS011;6608;48.790;9.198;2022-10-16T10:43:12;174.63;;;68.20;;
13083;SDS011;6608;48.790;9.198;2022-10-16T10:45:42;174.23;;;68.37;;
13083;SDS011;6608;48.790;9.198;2022-10-16T10:48:15;170.73;;;68.30;;
13083;SDS011;6608;48.790;9.198;2022-10-16T10:50:45;168.53;;;68.37;;
13083;SDS011;6608;48.790;9.198;2022-10-16T10:53:18;173.07;;;69.57;;
13083;SDS011;6608;48.790;9.198;2022-10-16T10:55:48;172.60;;;69.63;;
13083;SDS011;6608;48.790;9.198;2022-10-16T11:01:16;171.77;;;70.27;;
13083;SDS011;6608;48.790;9.198;2022-10-16T11:03:54;169.07;;;70.53;;
13083;SDS011;6608;48.790;9.198;2022-10-16T11:06:24;171.00;;;71.37;;
13083;SDS011;6608;48.790;9.198;2022-10-16T11:08:53;173.27;;;71.57;;
13083;SDS011;6608;48.790;9.198;2022-10-16T11:11:20;170.13;;;71.50;;
13083;SDS011;6608;48.790;9.198;2022-10-16T11:13:51;172.20;;;71.93;;
13083;SDS011;6608;48.790;9.198;2022-10-16T11:16:22;171.17;;;70.97;;
13083;SDS011;6608;48.790;9.198;2022-10-16T11:18:50;173.37;;;71.37;;
13083;SDS011;6608;48.790;9.198;2022-10-16T11:21:18;170.87;;;71.60;;
13083;SDS011;6608;48.790;9.198;2022-10-16T11:23:47;170.83;;;70.40;;
13083;SDS011;6608;48.790;9.198;2022-10-16T11:26:16;169.70;;;70.83;;
13083;SDS011;6608;48.790;9.198;2022-10-16T11:28:44;174.70;;;71.37;;
13083;SDS011;6608;48.790;9.198;2022-10-16T11:31:13;173.53;;;71.73;;
13083;SDS011;6608;48.790;9.198;2022-10-16T11:33:43;172.70;;;71.60;;
13083;SDS011;6608;48.790;9.198;2022-10-16T11:36:12;171.20;;;70.97;;
13083;SDS011;6608;48.790;9.198;2022-10-16T11:38:41;170.73;;;71.60;;
13083;SDS011;6608;48.790;9.198;2022-10-16T11:41:11;172.70;;;71.00;;
13083;SDS011;6608;48.790;9.198;2022-10-16T11:43:39;170.70;;;71.00;;
13083;SDS011;6608;48.790;9.198;2022-10-16T11:46:08;172.47;;;71.37;;
13083;SDS011;6608;48.790;9.198;2022-10-16T11:48:39;171.67;;;72.57;;
13083;SDS011;6608;48.790;9.198;2022-10-16T11:51:11;175.00;;;73.47;;
13083;SDS011;6608;48.790;9.198;2022-10-16T11:53:42;171.83;;;76.27;;
13083;SDS011;6608;48.790;9.198;2022-10-16T11:56:11;169.15;;;76.00;;
13083;SDS011;6608;48.790;9.198;2022-10-16T11:58:40;170.05;;;76.40;;
13083;SDS011;6608;48.790;9.198;2022-10-16T12:01:13;162.85;;;76.93;;
13083;SDS011;6608;48.790;9.198;2022-10-16T12:03:42;159.27;;;77.65;;
13083;SDS011;6608;48.790;9.198;2022-10-16T12:06:16;151.60;;;76.78;;
13083;SDS011;6608;48.790;9.198;2022-10-16T12:08:46;153.68;;;77.32;;
13083;SDS011;6608;48.790;9.198;2022-10-16T12:11:23;162.48;;;76.90;;
13083;SDS011;6608;48.790;9.198;2022-10-16T12:13:49;139.60;;;76.18;;
13083;SDS011;6608;48.790;9.198;2022-10-16T12:16:20;142.50;;;75.63;;
13083;SDS011;6608;48.790;9.198;2022-10-16T12:18:47;174.38;;;73.60;;
13083;SDS011;6608;48.790;9.198;2022-10-16T12:21:16;158.67;;;76.00;;
13083;SDS011;6608;48.790;9.198;2022-10-16T12:23:46;167.23;;;75.45;;
13083;SDS011;6608;48.790;9.198;2022-10-16T12:26:13;149.80;;;74.43;;
13083;SDS011;6608;48.790;9.198;2022-10-16T12:28:40;156.57;;;76.43;;
13083;SDS011;6608;48.790;9.198;2022-10-16T12:31:07;152.40;;;75.50;;
13083;SDS011;6608;48.790;9.198;2022-10-16T12:33:35;171.20;;;74.32;;
13083;SDS011;6608;48.790;9.198;2022-10-16T12:36:03;171.40;;;73.40;;
13083;SDS011;6608;48.790;9.198;2022-10-16T12:38:33;173.10;;;73.93;;
13083;SDS011;6608;48.790;9.198;2022-10-16T12:41:07;172.23;;;74.87;;
13083;SDS011;6608;48.790;9.198;2022-10-16T12:43:35;172.47;;;73.33;;
13083;SDS011;6608;48.790;9.198;2022-10-16T12:46:03;171.27;;;72.03;;
13083;SDS011;6608;48.790;9.198;2022-10-16T12:48:30;168.77;;;72.80;;
13083;SDS011;6608;48.790;9.198;2022-10-16T12:50:57;169.27;;;72.90;;
13083;SDS011;6608;48.790;9.198;2022-10-16T12:53:24;173.87;;;72.67;;
13083;SDS011;6608;48.790;9.198;2022-10-16T12:56:04;168.07;;;73.10;;
13083;SDS011;6608;48.790;9.198;2022-10-16T13:01:19;173.40;;;72.57;;
13083;SDS011;6608;48.790;9.198;2022-10-16T13:03:52;177.03;;;72.47;;
13083;SDS011;6608;48.790;9.198;2022-10-16T13:06:28;174.47;;;71.53;;
13083;SDS011;6608;48.790;9.198;2022-10-16T13:09:05;172.63;;;70.63;;
13083;SDS011;6608;48.790;9.198;2022-10-16T13:11:38;172.87;;;72.30;;
13083;SDS011;6608;48.790;9.198;2022-10-16T13:14:16;170.50;;;71.57;;
13083;SDS011;6608;48.790;9.198;2022-10-16T13:16:50;171.90;;;71.43;;
13083;SDS011;6608;48.790;9.198;2022-10-16T13:19:22;172.13;;;71.00;;
13083;SDS011;6608;48.790;9.198;2022-10-16T13:21:51;176.13;;;71.60;;
13083;SDS011;6608;48.790;9.198;2022-10-16T13:24:23;178.63;;;71.43;;
13083;SDS011;6608;48.790;9.198;2022-10-16T13:26:54;175.33;;;71.70;;
13083;SDS011;6608;48.790;9.198;2022-10-16T13:29:23;175.67;;;72.17;;
13083;SDS011;6608;48.790;9.198;2022-10-16T13:31:49;178.63;;;73.17;;
13083;SDS011;6608;48.790;9.198;2022-10-16T13:34:17;180.13;;;72.03;;
13083;SDS011;6608;48.790;9.198;2022-10-16T13:36:44;173.67;;;70.43;;
13083;SDS011;6608;48.790;9.198;2022-10-16T13:39:12;173.70;;;70.77;;
13083;SDS011;6608;48.790;9.198;2022-10-16T13:41:39;174.17;;;70.47;;
13083;SDS011;6608;48.790;9.198;2022-10-16T13:44:09;179.40;;;70.73;;
13083;SDS011;6608;48.790;9.198;2022-10-16T13:46:37;173.07;;;69.70;;
13083;SDS011;6608;48.790;9.198;2022-10-16T13:49:04;173.00;;;69.80;;
13083;SDS011;6608;48.790;9.198;2022-10-16T13:51:31;172.73;;;69.63;;
13083;SDS011;6608;48.790;9.198;2022-10-16T13:53:58;171.30;;;69.00;;
13083;SDS011;6608;48.790;9.198;2022-10-16T13:56:25;172.70;;;70.20;;
13083;SDS011;6608;48.790;9.198;2022-10-16T13:58:58;171.90;;;69.20;;
13083;SDS011;6608;48.790;9.198;2022-10-16T14:01:27;174.40;;;70.33;;
13083;SDS011;6608;48.790;9.198;2022-10-16T14:03:59;174.23;;;70.40;;
13083;SDS011;6608;48.790;9.198;2022-10-16T14:06:26;173.87;;;70.90;;
13083;SDS011;6608;48.790;9.198;2022-10-16T14:08:54;174.77;;;69.90;;
13083;SDS011;6608;48.790;9.198;2022-10-16T14:11:22;173.60;;;70.67;;
13083;SDS011;6608;48.790;9.198;2022-10-16T14:13:49;175.27;;;70.87;;
13083;SDS011;6608;48.790;9.198;2022-10-16T14:16:16;178.17;;;72.03;;
13083;SDS011;6608;48.790;9.198;2022-10-16T14:18:46;180.50;;;71.43;;
13083;SDS011;6608;48.790;9.198;2022-10-16T14:21:16;175.37;;;69.73;;
13083;SDS011;6608;48.790;9.198;2022-10-16T14:23:43;173.90;;;69.70;;
13083;SDS011;6608;48.790;9.198;2022-10-16T14:26:13;173.97;;;70.17;;
13083;SDS011;6608;48.790;9.198;2022-10-16T14:28:40;180.07;;;71.97;;
13083;SDS011;6608;48.790;9.198;2022-10-16T14:31:19;177.50;;;72.57;;
13083;SDS011;6608;48.790;9.198;2022-10-16T14:33:49;178.00;;;72.53;;